Grand Bay, Alabama
Current Conditions -  °F | °C
As of 2:53 PM on Monday 24 Nov 2014 (Local Time) from KPQL Reporting Station
Clear Clear  
Wind Chill: 77°   Ceiling: Unl
Heat Index: 78°   Visibility: 10mi
Dew Point: 53°   Wind: 10mph
Humidity: 43%   Direction: 330°NNW
Pressure: 29.84"   Gusts: NA
Location:  30.48°N, 88.34°W
Report Text: KPQL 242053Z 33009KT 10SM CLR 25/12 A2984 RMK AO2 SLP105 T02500117 53003
Loading
Personal Weather Stations






























Interactive Weather Map New forecast layout! Learn more

10-Day Weather Forecast

Advertisements
Track Severe Weather on mobile